Time;durP1;ratioP1;P1;durP2;ratioP2;P2;SDS_P1;SDS_P2;PMS_P1;PMS_P2;Temp;Humidity;BMP_temperature;BMP_pressure;BME280_temperature;BME280_humidity;BME280_pressure;Samples;Min_cycle;Max_cycle;Signal;HPM_P1;HPM_P2
2023/06/12 00:01:09;;;;;;;22.25;20.55;;;13.00;99.90;;;;;;5081775;28;20494;-71
2023/06/12 00:03:36;;;;;;;22.45;20.63;;;13.00;99.90;;;;;;5085833;28;20607;-72
2023/06/12 00:06:05;;;;;;;22.55;20.70;;;12.90;99.90;;;;;;5081639;28;20036;-72
2023/06/12 00:08:35;;;;;;;22.73;21.05;;;12.90;99.90;;;;;;5081389;28;20658;-72
2023/06/12 00:11:09;;;;;;;22.10;20.40;;;12.80;99.90;;;;;;5065053;28;20055;-71
2023/06/12 00:13:36;;;;;;;21.52;20.17;;;12.80;99.90;;;;;;5085787;28;20571;-72
2023/06/12 00:16:03;;;;;;;22.48;20.77;;;12.70;99.90;;;;;;5082412;28;20451;-70
2023/06/12 00:18:30;;;;;;;22.58;20.67;;;12.70;99.90;;;;;;5079130;28;20039;-71
2023/06/12 00:20:57;;;;;;;21.48;19.98;;;12.70;99.90;;;;;;5069963;28;20147;-70
2023/06/12 00:23:24;;;;;;;22.00;20.30;;;12.70;99.90;;;;;;5068676;28;20130;-70
2023/06/12 00:25:51;;;;;;;21.95;20.13;;;12.60;99.90;;;;;;5081071;28;20052;-71
2023/06/12 00:28:17;;;;;;;22.13;20.48;;;12.50;99.90;;;;;;5081683;28;20097;-70
2023/06/12 00:30:44;;;;;;;21.77;20.30;;;12.40;99.90;;;;;;5069992;28;20199;-70
2023/06/12 00:33:11;;;;;;;22.33;20.55;;;12.40;99.90;;;;;;5071870;28;20050;-70
2023/06/12 00:35:38;;;;;;;22.10;20.50;;;12.40;99.90;;;;;;5064208;28;20051;-70
2023/06/12 00:38:06;;;;;;;21.75;20.17;;;12.40;99.90;;;;;;5090911;28;20032;-71
2023/06/12 00:40:33;;;;;;;22.20;20.35;;;12.30;99.90;;;;;;5080155;28;20097;-71
2023/06/12 00:42:59;;;;;;;22.20;20.40;;;12.40;99.90;;;;;;5081376;28;20048;-71
2023/06/12 00:45:26;;;;;;;22.02;20.38;;;12.40;99.90;;;;;;5081950;28;20063;-72
2023/06/12 00:47:56;;;;;;;22.77;20.70;;;12.50;99.90;;;;;;5073303;28;20040;-71
2023/06/12 00:50:27;;;;;;;22.48;20.45;;;12.50;99.90;;;;;;5084925;28;20044;-71
2023/06/12 00:52:56;;;;;;;20.58;19.17;;;12.40;99.90;;;;;;5087208;28;20040;-71
2023/06/12 00:55:23;;;;;;;21.23;19.63;;;12.30;99.90;;;;;;5081465;28;20089;-72
2023/06/12 00:57:51;;;;;;;22.33;19.90;;;12.30;99.90;;;;;;5088555;28;20452;-71
2023/06/12 01:00:19;;;;;;;22.48;20.65;;;12.20;99.90;;;;;;5087610;28;20031;-71
2023/06/12 01:02:50;;;;;;;21.27;19.88;;;12.10;99.90;;;;;;5092491;28;20051;-72
2023/06/12 01:05:32;;;;;;;22.95;20.80;;;12.10;99.90;;;;;;5066789;28;20139;-69
2023/06/12 01:08:21;;;;;;;22.00;20.25;;;12.00;99.90;;;;;;5063535;28;20048;-72
2023/06/12 01:10:59;;;;;;;21.13;19.70;;;12.00;99.90;;;;;;5074367;28;20110;-72
2023/06/12 01:13:26;;;;;;;21.55;19.73;;;12.10;99.90;;;;;;5071024;28;20047;-72
2023/06/12 01:15:53;;;;;;;21.42;19.30;;;12.10;99.90;;;;;;5091378;28;20104;-71
2023/06/12 01:18:21;;;;;;;21.30;19.42;;;12.10;99.90;;;;;;5083499;28;20113;-72
2023/06/12 01:20:49;;;;;;;20.33;18.92;;;12.10;99.90;;;;;;5083864;28;20044;-69
2023/06/12 01:23:44;;;;;;;20.50;19.00;;;12.00;99.90;;;;;;5068166;28;20372;-70
2023/06/12 01:26:33;;;;;;;20.77;19.15;;;12.10;99.90;;;;;;5091351;28;20036;-70
2023/06/12 01:29:34;;;;;;;20.60;19.20;;;12.10;99.90;;;;;;5089388;28;20529;-69
2023/06/12 01:32:07;;;;;;;21.08;19.33;;;12.00;99.90;;;;;;5074033;28;20067;-70
2023/06/12 01:34:50;;;;;;;22.13;20.38;;;11.90;99.90;;;;;;5081466;28;20418;-71
2023/06/12 01:37:31;;;;;;;20.88;19.05;;;11.80;99.90;;;;;;5067212;28;20138;-70
2023/06/12 01:40:00;;;;;;;21.30;19.67;;;11.80;99.90;;;;;;5066529;28;20447;-70
2023/06/12 01:42:29;;;;;;;20.13;18.63;;;11.80;99.90;;;;;;5085055;28;20302;-70
2023/06/12 01:44:56;;;;;;;20.92;19.23;;;11.70;99.90;;;;;;5075697;28;20410;-70
2023/06/12 01:47:23;;;;;;;19.98;18.58;;;11.80;99.90;;;;;;5066123;28;20545;-70
2023/06/12 01:49:51;;;;;;;20.02;18.63;;;11.60;99.90;;;;;;5070482;28;20079;-70
2023/06/12 01:52:19;;;;;;;20.65;19.15;;;11.50;99.90;;;;;;5067242;28;20044;-70
2023/06/12 01:54:49;;;;;;;19.75;18.35;;;11.50;99.90;;;;;;5073143;28;20079;-70
2023/06/12 01:57:20;;;;;;;20.90;19.30;;;11.60;99.90;;;;;;5065061;28;20436;-69
2023/06/12 01:59:48;;;;;;;19.85;18.55;;;11.60;99.90;;;;;;5066001;28;20044;-70
2023/06/12 02:02:18;;;;;;;19.77;18.45;;;11.60;99.90;;;;;;5065263;28;20041;-70
2023/06/12 02:04:46;;;;;;;19.85;18.27;;;11.60;99.90;;;;;;5071085;28;20047;-70
2023/06/12 02:07:13;;;;;;;19.55;18.15;;;11.70;99.90;;;;;;5072331;28;20437;-72
2023/06/12 02:09:40;;;;;;;19.33;18.00;;;11.60;99.90;;;;;;5067943;28;20273;-70
2023/06/12 02:12:07;;;;;;;19.85;18.35;;;11.40;99.90;;;;;;5071440;28;20038;-70
2023/06/12 02:14:35;;;;;;;19.42;18.10;;;11.30;99.90;;;;;;5068794;28;20039;-70
2023/06/12 02:17:02;;;;;;;18.83;17.40;;;11.30;99.90;;;;;;5090563;28;20046;-70
2023/06/12 02:19:29;;;;;;;20.85;18.98;;;11.40;99.90;;;;;;5066291;28;20043;-70
2023/06/12 02:21:57;;;;;;;21.48;19.70;;;11.30;99.90;;;;;;5086017;28;20048;-70
2023/06/12 02:24:29;;;;;;;20.92;19.30;;;11.20;99.90;;;;;;5071578;28;20190;-69
2023/06/12 02:26:59;;;;;;;21.58;19.52;;;11.10;99.90;;;;;;5067574;28;20063;-72
2023/06/12 02:29:26;;;;;;;21.77;19.88;;;11.10;99.90;;;;;;5061130;28;20052;-71
2023/06/12 02:31:55;;;;;;;20.27;18.70;;;11.20;99.90;;;;;;5068044;28;20537;-69
2023/06/12 02:34:22;;;;;;;20.40;18.70;;;11.40;99.90;;;;;;5068322;28;20067;-69
2023/06/12 02:36:50;;;;;;;19.88;18.38;;;11.20;99.90;;;;;;5070169;28;20047;-70
2023/06/12 02:39:23;;;;;;;20.17;18.45;;;11.20;99.90;;;;;;5071201;28;20565;-70
2023/06/12 02:41:51;;;;;;;20.45;18.67;;;11.20;99.90;;;;;;5074504;28;20037;-70
2023/06/12 02:44:18;;;;;;;21.67;19.85;;;11.20;99.90;;;;;;5071377;28;20036;-70
2023/06/12 02:46:57;;;;;;;21.17;19.48;;;11.40;99.90;;;;;;5086210;28;20527;-69
2023/06/12 02:49:29;;;;;;;20.92;19.05;;;11.30;99.90;;;;;;5065221;28;20083;-70
2023/06/12 02:51:57;;;;;;;20.65;18.95;;;11.30;99.90;;;;;;5072391;28;20128;-70
2023/06/12 02:54:26;;;;;;;20.98;19.30;;;11.20;99.90;;;;;;5068952;28;20059;-70
2023/06/12 02:56:54;;;;;;;22.05;20.35;;;11.30;99.90;;;;;;5062110;28;20571;-70
2023/06/12 02:59:26;;;;;;;20.77;18.98;;;11.40;99.90;;;;;;5062788;28;20040;-70
2023/06/12 03:01:58;;;;;;;21.33;19.35;;;11.40;99.90;;;;;;5073639;28;20197;-71
2023/06/12 03:04:36;;;;;;;19.75;18.25;;;11.40;99.90;;;;;;5068356;28;20048;-70
2023/06/12 03:07:05;;;;;;;21.50;19.77;;;11.30;99.90;;;;;;5071462;28;20233;-70
2023/06/12 03:09:33;;;;;;;21.63;19.95;;;11.40;99.90;;;;;;5062266;28;20516;-70
2023/06/12 03:12:00;;;;;;;20.88;19.27;;;11.30;99.90;;;;;;5062907;28;20104;-70
2023/06/12 03:14:28;;;;;;;21.20;19.60;;;11.40;99.90;;;;;;5071098;28;20040;-70
2023/06/12 03:16:54;;;;;;;18.20;16.85;;;11.40;99.90;;;;;;5054954;28;20048;-70
2023/06/12 03:19:21;;;;;;;20.77;18.92;;;11.40;99.90;;;;;;5088260;28;20040;-70
2023/06/12 03:21:48;;;;;;;20.27;18.58;;;11.40;99.90;;;;;;5069470;28;20189;-70
2023/06/12 03:24:15;;;;;;;20.95;19.10;;;11.50;99.90;;;;;;5065597;28;20032;-70
2023/06/12 03:26:42;;;;;;;23.60;21.60;;;11.70;99.90;;;;;;5068523;28;20043;-70
2023/06/12 03:29:09;;;;;;;24.65;22.65;;;12.50;99.90;;;;;;5070275;28;20073;-70
2023/06/12 03:31:38;;;;;;;28.33;26.02;;;13.30;99.90;;;;;;5071138;28;20043;-70
2023/06/12 03:34:05;;;;;;;28.35;25.98;;;13.90;99.90;;;;;;5071496;28;20177;-70
2023/06/12 03:36:33;;;;;;;30.60;28.15;;;14.30;99.90;;;;;;5064112;28;20302;-70
2023/06/12 03:39:02;;;;;;;29.90;27.33;;;14.80;99.90;;;;;;5061293;28;20124;-69
2023/06/12 03:41:31;;;;;;;29.88;27.58;;;14.80;99.90;;;;;;5058295;28;20048;-70
2023/06/12 03:44:00;;;;;;;30.48;28.05;;;15.00;99.90;;;;;;5071519;28;20039;-69
2023/06/12 03:46:30;;;;;;;30.33;28.02;;;15.30;99.90;;;;;;5081058;28;20036;-69
2023/06/12 03:48:59;;;;;;;30.42;28.02;;;15.30;99.90;;;;;;5070083;28;20048;-70
2023/06/12 03:51:26;;;;;;;29.92;27.33;;;15.20;99.90;;;;;;5072189;28;20040;-69
2023/06/12 03:53:54;;;;;;;28.77;26.58;;;15.10;99.90;;;;;;5064474;28;20079;-69
2023/06/12 03:56:21;;;;;;;30.17;27.67;;;15.10;99.90;;;;;;5068490;28;20135;-70
2023/06/12 03:58:49;;;;;;;29.63;27.42;;;15.00;99.90;;;;;;5065336;28;20551;-70
2023/06/12 04:01:17;;;;;;;30.75;28.30;;;14.90;99.90;;;;;;5072406;28;20417;-70
2023/06/12 04:03:48;;;;;;;29.85;27.55;;;14.80;99.90;;;;;;5081392;28;20055;-70
2023/06/12 04:06:15;;;;;;;30.23;27.83;;;14.60;99.90;;;;;;5047456;28;20489;-70
2023/06/12 04:08:44;;;;;;;29.55;27.23;;;14.50;99.90;;;;;;5065968;28;20039;-70
2023/06/12 04:11:14;;;;;;;30.63;28.33;;;14.80;99.90;;;;;;5067074;28;20044;-70
2023/06/12 04:13:41;;;;;;;30.17;27.88;;;14.80;99.90;;;;;;5084228;28;20074;-71
2023/06/12 04:16:08;;;;;;;29.23;27.08;;;14.80;99.90;;;;;;5083894;28;20042;-70
2023/06/12 04:18:37;;;;;;;30.27;27.95;;;14.80;99.90;;;;;;5068952;28;20756;-71
2023/06/12 04:21:05;;;;;;;30.85;28.42;;;14.80;99.90;;;;;;5070840;28;20040;-71
2023/06/12 04:23:32;;;;;;;31.27;28.77;;;14.90;99.90;;;;;;5049551;28;20032;-71
2023/06/12 04:26:10;;;;;;;30.15;27.85;;;14.90;99.90;;;;;;5064018;28;20036;-71
2023/06/12 04:28:36;;;;;;;30.60;28.10;;;14.90;99.90;;;;;;5064378;28;20455;-72
2023/06/12 04:31:04;;;;;;;31.08;28.48;;;15.00;99.90;;;;;;5066819;28;20036;-71
2023/06/12 04:33:32;;;;;;;31.73;29.20;;;15.20;99.90;;;;;;5040320;28;20279;-71
2023/06/12 04:36:02;;;;;;;31.33;28.83;;;15.50;99.90;;;;;;5044920;28;20401;-71
2023/06/12 04:38:32;;;;;;;32.40;29.77;;;15.70;99.90;;;;;;5069699;28;20040;-70
2023/06/12 04:40:59;;;;;;;31.48;28.80;;;16.10;99.90;;;;;;5067435;28;20051;-70
2023/06/12 04:43:26;;;;;;;32.97;30.48;;;16.40;99.90;;;;;;5068706;28;20604;-70
2023/06/12 04:45:53;;;;;;;33.95;31.25;;;16.70;99.90;;;;;;5065267;28;20044;-71
2023/06/12 04:48:24;;;;;;;33.70;31.20;;;17.20;99.90;;;;;;5063637;28;20051;-71
2023/06/12 04:50:53;;;;;;;33.05;30.45;;;17.60;99.90;;;;;;5059178;28;20529;-71
2023/06/12 04:53:27;;;;;;;34.13;31.55;;;17.70;99.90;;;;;;5066191;28;20143;-71
2023/06/12 04:55:56;;;;;;;33.70;31.02;;;17.80;99.90;;;;;;5084248;28;20070;-71
2023/06/12 04:58:23;;;;;;;33.88;31.27;;;18.00;99.90;;;;;;5062294;28;20391;-71
2023/06/12 05:00:55;;;;;;;34.38;31.77;;;18.10;99.90;;;;;;5077902;28;20139;-71
2023/06/12 05:03:22;;;;;;;33.63;30.92;;;18.40;99.90;;;;;;5083364;28;20518;-71
2023/06/12 05:05:54;;;;;;;33.60;31.08;;;18.50;99.90;;;;;;5079585;28;20048;-71
2023/06/12 05:08:20;;;;;;;34.22;31.67;;;18.80;99.90;;;;;;5068345;28;20526;-71
2023/06/12 05:10:48;;;;;;;33.75;30.88;;;19.00;99.90;;;;;;5082550;28;20036;-70
2023/06/12 05:13:14;;;;;;;34.20;31.50;;;19.20;99.90;;;;;;5082377;28;20135;-71
2023/06/12 05:15:42;;;;;;;35.78;32.97;;;19.30;99.90;;;;;;5064125;28;20048;-70
2023/06/12 05:18:09;;;;;;;35.15;32.45;;;19.40;99.90;;;;;;5081246;28;20351;-71
2023/06/12 05:20:36;;;;;;;34.97;32.17;;;19.60;99.90;;;;;;5065943;28;20121;-71
2023/06/12 05:23:05;;;;;;;34.90;32.10;;;19.70;99.90;;;;;;5069329;28;20047;-70
2023/06/12 05:25:32;;;;;;;35.45;32.55;;;19.70;99.90;;;;;;5059278;28;20043;-70
2023/06/12 05:28:00;;;;;;;34.80;32.08;;;20.00;99.90;;;;;;5060765;28;20049;-70
2023/06/12 05:30:27;;;;;;;35.47;32.72;;;20.10;99.90;;;;;;5064057;28;20336;-70
2023/06/12 05:32:54;;;;;;;35.70;32.80;;;20.50;99.90;;;;;;5085006;28;20044;-70
2023/06/12 05:35:21;;;;;;;35.53;32.75;;;20.70;99.90;;;;;;5089937;28;20054;-71
2023/06/12 05:37:50;;;;;;;35.45;32.53;;;21.10;99.90;;;;;;5071445;28;20072;-70
2023/06/12 05:40:18;;;;;;;35.30;32.60;;;21.30;99.90;;;;;;5052366;28;20248;-70
2023/06/12 05:42:45;;;;;;;35.78;32.90;;;21.50;99.90;;;;;;5067358;28;20481;-70
2023/06/12 05:45:13;;;;;;;36.65;33.63;;;22.10;99.90;;;;;;5067479;28;20143;-70
2023/06/12 05:47:40;;;;;;;37.00;33.85;;;22.20;99.90;;;;;;5072886;28;20043;-70
2023/06/12 05:50:08;;;;;;;39.45;36.45;;;22.50;99.90;;;;;;5069253;28;20044;-70
2023/06/12 05:52:35;;;;;;;37.50;34.60;;;22.60;99.90;;;;;;5082255;28;20052;-71
2023/06/12 05:55:06;;;;;;;38.47;35.40;;;22.00;99.90;;;;;;5068014;28;20048;-72
2023/06/12 05:57:33;;;;;;;38.08;35.28;;;21.60;99.90;;;;;;5062038;28;20247;-71
2023/06/12 06:00:00;;;;;;;38.17;35.35;;;21.60;99.90;;;;;;5074698;28;20040;-72
2023/06/12 06:02:29;;;;;;;38.88;35.78;;;21.70;99.90;;;;;;5065215;28;20114;-72
2023/06/12 06:04:57;;;;;;;39.45;36.45;;;21.60;99.90;;;;;;5068969;28;20459;-71
2023/06/12 06:07:24;;;;;;;38.75;36.05;;;21.90;99.90;;;;;;5069163;28;20047;-71
2023/06/12 06:09:52;;;;;;;38.63;35.83;;;22.20;99.90;;;;;;5081866;28;20279;-71
2023/06/12 06:12:18;;;;;;;39.67;36.78;;;22.40;99.90;;;;;;5067366;28;20055;-71
2023/06/12 06:14:45;;;;;;;39.20;36.50;;;22.40;99.90;;;;;;5054809;28;20274;-71
2023/06/12 06:17:13;;;;;;;38.70;35.58;;;22.90;99.90;;;;;;5070311;28;20121;-72
2023/06/12 06:19:40;;;;;;;39.25;36.50;;;23.40;99.90;;;;;;5072263;28;20040;-71
2023/06/12 06:22:07;;;;;;;38.92;36.08;;;23.50;99.90;;;;;;5075366;28;20522;-71
2023/06/12 06:24:34;;;;;;;38.28;35.55;;;23.50;99.90;;;;;;5084063;28;20466;-71
2023/06/12 06:27:02;;;;;;;39.47;36.67;;;23.80;99.90;;;;;;5073381;28;20043;-72
2023/06/12 06:29:29;;;;;;;39.85;36.88;;;24.10;99.90;;;;;;5086813;28;20525;-71
2023/06/12 06:31:55;;;;;;;40.65;37.72;;;24.20;99.90;;;;;;5065431;28;20557;-71
2023/06/12 06:34:22;;;;;;;40.72;37.83;;;24.20;99.90;;;;;;5085849;28;20356;-71
2023/06/12 06:36:49;;;;;;;41.22;38.42;;;24.20;99.90;;;;;;5063233;28;20032;-71
2023/06/12 06:39:16;;;;;;;41.00;38.10;;;24.20;99.90;;;;;;5068681;28;20109;-71
2023/06/12 06:41:43;;;;;;;40.15;37.45;;;24.40;99.90;;;;;;5083141;28;20428;-72
2023/06/12 06:44:10;;;;;;;39.22;36.47;;;24.60;99.90;;;;;;5071054;28;20101;-71
2023/06/12 06:46:41;;;;;;;42.10;39.13;;;24.20;99.90;;;;;;5064708;28;20039;-71
2023/06/12 06:49:09;;;;;;;42.90;39.83;;;24.20;99.90;;;;;;5074518;28;20047;-71
2023/06/12 06:51:36;;;;;;;43.35;40.25;;;23.70;99.90;;;;;;5068260;28;20028;-71
2023/06/12 06:54:03;;;;;;;42.75;39.70;;;23.40;99.90;;;;;;5051530;28;20335;-71
2023/06/12 06:56:30;;;;;;;42.60;39.70;;;23.50;99.90;;;;;;5073303;28;20698;-72
2023/06/12 06:58:57;;;;;;;43.22;40.22;;;23.60;99.90;;;;;;5086379;28;20074;-70
2023/06/12 07:01:25;;;;;;;41.60;38.90;;;23.50;99.90;;;;;;5085292;28;20472;-69
2023/06/12 07:03:52;;;;;;;42.78;39.88;;;23.40;99.90;;;;;;5067211;28;20039;-71
2023/06/12 07:06:20;;;;;;;43.53;40.63;;;23.50;99.90;;;;;;5062001;28;20043;-70
2023/06/12 07:08:46;;;;;;;44.85;41.83;;;23.10;99.90;;;;;;5084388;28;20129;-70
2023/06/12 07:11:14;;;;;;;43.17;40.38;;;22.80;99.90;;;;;;5069851;28;20460;-72
2023/06/12 07:13:41;;;;;;;43.72;40.83;;;22.90;99.90;;;;;;5070004;28;20567;-72
2023/06/12 07:16:08;;;;;;;43.97;40.97;;;22.70;99.90;;;;;;5087059;28;20063;-71
2023/06/12 07:18:35;;;;;;;44.17;41.17;;;22.50;99.90;;;;;;5067330;28;20310;-72
2023/06/12 07:21:03;;;;;;;42.00;39.25;;;22.40;99.90;;;;;;5064838;28;20044;-71
2023/06/12 07:23:30;;;;;;;43.90;40.95;;;22.70;99.90;;;;;;5067781;28;20150;-72
2023/06/12 07:25:56;;;;;;;42.55;39.63;;;22.90;99.90;;;;;;5074166;28;20052;-71
2023/06/12 07:28:23;;;;;;;42.28;39.53;;;22.60;99.90;;;;;;5100400;28;20155;-69
2023/06/12 07:30:50;;;;;;;43.17;40.45;;;22.60;99.90;;;;;;5084339;28;20040;-71
2023/06/12 07:33:18;;;;;;;42.78;39.90;;;22.50;99.90;;;;;;5068390;28;20135;-70
2023/06/12 07:35:45;;;;;;;44.20;41.20;;;22.70;99.90;;;;;;5063103;28;20467;-71
2023/06/12 07:38:13;;;;;;;42.92;40.03;;;22.60;99.90;;;;;;5071913;28;20047;-70
2023/06/12 07:40:39;;;;;;;44.15;41.10;;;22.50;99.90;;;;;;5069061;28;20040;-71
2023/06/12 07:43:06;;;;;;;44.67;41.60;;;22.80;99.90;;;;;;5090549;28;20529;-71
2023/06/12 07:45:36;;;;;;;43.70;40.75;;;22.90;99.90;;;;;;5068511;28;20051;-71
2023/06/12 07:48:03;;;;;;;44.70;41.60;;;23.70;99.90;;;;;;5060071;28;20047;-70
2023/06/12 07:50:34;;;;;;;44.75;41.65;;;23.90;99.90;;;;;;5066928;28;20187;-72
2023/06/12 07:53:01;;;;;;;43.97;40.75;;;23.60;99.90;;;;;;5073261;28;20059;-72
2023/06/12 07:55:30;;;;;;;43.40;40.35;;;23.80;99.90;;;;;;5053356;28;20044;-72
2023/06/12 07:57:58;;;;;;;43.47;40.47;;;24.10;99.90;;;;;;5070360;28;20047;-73
2023/06/12 08:00:26;;;;;;;43.03;40.13;;;24.30;99.90;;;;;;5069407;28;20043;-71
2023/06/12 08:02:58;;;;;;;43.33;40.42;;;24.10;99.90;;;;;;5066405;28;20044;-72
2023/06/12 08:05:34;;;;;;;43.35;40.35;;;24.70;99.90;;;;;;5064321;28;20040;-70
2023/06/12 08:08:03;;;;;;;44.63;41.53;;;24.70;99.90;;;;;;5064979;28;20225;-70
2023/06/12 08:10:32;;;;;;;44.50;41.38;;;24.90;99.90;;;;;;5073066;28;20136;-70
2023/06/12 08:13:00;;;;;;;44.25;40.97;;;24.10;99.90;;;;;;5069252;28;20040;-70
2023/06/12 08:15:27;;;;;;;45.60;42.17;;;23.80;99.90;;;;;;5067707;28;20158;-70
2023/06/12 08:17:54;;;;;;;44.35;41.25;;;24.20;99.90;;;;;;5061500;28;20040;-72
2023/06/12 08:20:21;;;;;;;44.00;40.92;;;24.50;99.90;;;;;;5070156;28;20365;-72
2023/06/12 08:22:48;;;;;;;43.90;40.80;;;24.40;99.90;;;;;;5067041;28;20078;-70
2023/06/12 08:25:15;;;;;;;45.35;41.83;;;24.80;99.90;;;;;;5062812;28;20040;-72
2023/06/12 08:27:42;;;;;;;43.33;40.22;;;25.00;99.90;;;;;;5078289;28;20105;-72
2023/06/12 08:30:09;;;;;;;45.95;42.70;;;24.80;99.90;;;;;;5048686;28;20039;-72
2023/06/12 08:32:36;;;;;;;45.38;41.92;;;24.50;99.90;;;;;;5088531;28;20048;-72
2023/06/12 08:35:04;;;;;;;44.47;41.15;;;24.60;99.90;;;;;;5070063;28;20131;-72
2023/06/12 08:37:32;;;;;;;45.42;42.17;;;25.10;99.90;;;;;;5061882;28;20044;-72
2023/06/12 08:40:00;;;;;;;45.55;42.38;;;25.40;99.90;;;;;;5066728;28;20032;-72
2023/06/12 08:42:27;;;;;;;47.15;43.90;;;25.10;99.90;;;;;;5067037;28;20127;-71
2023/06/12 08:45:03;;;;;;;45.75;42.65;;;25.20;99.90;;;;;;5065391;28;20036;-72
2023/06/12 08:47:48;;;;;;;46.13;42.95;;;25.40;99.90;;;;;;5087255;28;20044;-72
2023/06/12 08:50:17;;;;;;;48.42;45.05;;;25.60;99.90;;;;;;5086011;28;20074;-72
2023/06/12 08:52:44;;;;;;;48.22;44.92;;;25.50;99.90;;;;;;5088274;28;20134;-71
2023/06/12 08:55:15;;;;;;;47.88;44.67;;;25.00;99.90;;;;;;5082360;28;20174;-72
2023/06/12 08:57:43;;;;;;;48.72;44.97;;;25.00;99.90;;;;;;5081591;28;20066;-72
2023/06/12 09:00:14;;;;;;;48.53;45.22;;;24.70;99.90;;;;;;5084604;28;20367;-72
2023/06/12 09:02:45;;;;;;;48.50;45.10;;;24.50;99.90;;;;;;5088529;28;20088;-71
2023/06/12 09:05:17;;;;;;;47.67;44.47;;;24.80;99.90;;;;;;5066236;28;20377;-71
2023/06/12 09:07:46;;;;;;;45.50;42.38;;;24.70;99.90;;;;;;5082543;28;20058;-71
2023/06/12 09:10:16;;;;;;;47.35;44.28;;;24.50;99.90;;;;;;5084664;28;20097;-71
2023/06/12 09:12:44;;;;;;;49.88;46.33;;;24.90;99.90;;;;;;5072468;28;20063;-72
2023/06/12 09:15:18;;;;;;;48.75;45.55;;;25.40;99.90;;;;;;5089144;28;20048;-71
2023/06/12 09:17:50;;;;;;;50.08;46.22;;;25.20;99.90;;;;;;5090946;28;20513;-71
2023/06/12 09:20:28;;;;;;;50.47;46.97;;;25.60;99.90;;;;;;5068605;28;20086;-72
2023/06/12 09:23:08;;;;;;;49.80;46.15;;;25.90;99.90;;;;;;5084727;28;20036;-72
2023/06/12 09:25:42;;;;;;;48.95;45.42;;;25.60;99.90;;;;;;5069787;28;20043;-72
2023/06/12 09:28:27;;;;;;;51.53;48.05;;;25.00;99.90;;;;;;5093741;28;20052;-72
2023/06/12 09:30:54;;;;;;;50.38;46.95;;;25.00;99.90;;;;;;5090868;28;20071;-72
2023/06/12 09:33:31;;;;;;;48.72;45.60;;;24.60;99.90;;;;;;5090085;28;20039;-72
2023/06/12 09:35:59;;;;;;;52.70;49.10;;;24.50;99.90;;;;;;5082633;28;20329;-71
2023/06/12 09:38:30;;;;;;;51.42;47.78;;;24.70;99.90;;;;;;5087324;28;20330;-71
2023/06/12 09:40:58;;;;;;;49.97;46.78;;;25.10;99.90;;;;;;5085167;28;20035;-72
2023/06/12 09:43:26;;;;;;;52.88;49.47;;;25.20;99.90;;;;;;5093242;28;20191;-72
2023/06/12 09:45:53;;;;;;;52.05;48.42;;;25.40;99.90;;;;;;5066721;28;20335;-72
2023/06/12 09:48:20;;;;;;;52.53;48.83;;;25.30;99.90;;;;;;5087331;28;20047;-72
2023/06/12 09:50:48;;;;;;;51.78;48.55;;;25.10;99.90;;;;;;5081996;28;20044;-71
2023/06/12 09:53:20;;;;;;;52.47;49.08;;;25.30;99.90;;;;;;5085647;28;20052;-71
2023/06/12 09:55:49;;;;;;;51.25;47.65;;;25.00;99.90;;;;;;5091522;27;20072;-71
2023/06/12 09:58:18;;;;;;;52.50;48.90;;;24.50;99.90;;;;;;5090820;28;20143;-71
2023/06/12 10:00:45;;;;;;;51.95;48.50;;;25.00;99.90;;;;;;5089619;28;20149;-72
2023/06/12 10:03:15;;;;;;;54.05;50.67;;;25.10;99.90;;;;;;5082881;28;20047;-72
2023/06/12 10:05:48;;;;;;;51.38;48.17;;;25.40;99.90;;;;;;5086764;28;20040;-72
2023/06/12 10:08:16;;;;;;;52.20;48.90;;;25.30;99.90;;;;;;5076435;28;20044;-72
2023/06/12 10:10:43;;;;;;;52.05;48.65;;;25.20;99.90;;;;;;5092861;28;20097;-71
2023/06/12 10:13:11;;;;;;;51.22;47.63;;;25.40;99.90;;;;;;5073801;28;20113;-72
2023/06/12 10:15:38;;;;;;;50.63;47.22;;;25.40;99.90;;;;;;5088502;28;20329;-70
2023/06/12 10:18:08;;;;;;;52.88;48.97;;;25.40;99.90;;;;;;5068028;28;20123;-71
2023/06/12 10:20:37;;;;;;;52.25;48.85;;;25.20;99.90;;;;;;5082439;28;20710;-72
2023/06/12 10:23:04;;;;;;;53.10;49.53;;;25.20;99.90;;;;;;5088808;28;20101;-71
2023/06/12 10:25:32;;;;;;;51.88;48.53;;;25.40;99.90;;;;;;5088956;28;20135;-71
2023/06/12 10:28:00;;;;;;;52.45;49.15;;;25.10;99.90;;;;;;5088842;28;20047;-71
2023/06/12 10:30:27;;;;;;;53.10;49.50;;;25.20;99.90;;;;;;5087232;28;20543;-71
2023/06/12 10:32:54;;;;;;;51.90;48.50;;;25.00;99.90;;;;;;5073192;28;20075;-71
2023/06/12 10:35:31;;;;;;;53.35;49.95;;;25.00;99.90;;;;;;5089650;28;20436;-72
2023/06/12 10:37:58;;;;;;;53.33;49.50;;;25.60;99.90;;;;;;5071359;28;20044;-71
2023/06/12 10:40:28;;;;;;;54.00;49.92;;;25.80;99.90;;;;;;5096754;28;20047;-71
2023/06/12 10:43:20;;;;;;;51.75;48.22;;;25.80;99.90;;;;;;5102438;28;20277;-71
2023/06/12 10:45:57;;;;;;;52.30;49.00;;;26.10;99.90;;;;;;5104184;28;20044;-70
2023/06/12 10:48:24;;;;;;;54.50;50.67;;;26.10;99.90;;;;;;5088751;28;20040;-72
2023/06/12 10:50:54;;;;;;;54.55;50.95;;;25.90;99.90;;;;;;5090102;28;20517;-71
2023/06/12 10:53:23;;;;;;;50.55;47.55;;;25.60;99.90;;;;;;5091045;28;20159;-72
2023/06/12 10:56:07;;;;;;;52.75;49.47;;;25.20;99.90;;;;;;5090215;28;20039;-71
2023/06/12 10:58:36;;;;;;;50.33;47.33;;;25.20;99.90;;;;;;5081432;28;20040;-71
2023/06/12 11:01:12;;;;;;;53.78;50.22;;;25.40;99.90;;;;;;5077211;28;20325;-72
2023/06/12 11:03:43;;;;;;;53.53;50.08;;;25.00;99.90;;;;;;5086916;28;20527;-72
2023/06/12 11:06:15;;;;;;;53.45;49.75;;;25.00;99.90;;;;;;5070939;28;21531;-71
2023/06/12 11:08:44;;;;;;;54.50;50.65;;;25.00;99.90;;;;;;5088185;28;20219;-71
2023/06/12 11:11:13;;;;;;;53.35;49.85;;;25.30;99.90;;;;;;5067555;28;20537;-71
2023/06/12 11:13:41;;;;;;;52.53;48.80;;;25.80;99.90;;;;;;5084210;28;20051;-71
2023/06/12 11:16:12;;;;;;;52.50;49.20;;;25.90;99.90;;;;;;5086987;28;20047;-71
2023/06/12 11:18:38;;;;;;;51.58;48.00;;;25.60;99.90;;;;;;5089973;28;20051;-72
2023/06/12 11:21:07;;;;;;;51.83;48.33;;;25.40;99.90;;;;;;5086512;28;20134;-71
2023/06/12 11:23:40;;;;;;;51.65;48.28;;;25.40;99.90;;;;;;5057116;28;20046;-72
2023/06/12 11:26:10;;;;;;;50.67;47.47;;;25.20;99.90;;;;;;5080317;28;20119;-72
2023/06/12 11:28:37;;;;;;;53.05;49.45;;;25.70;99.90;;;;;;5082097;28;20552;-72
2023/06/12 11:31:07;;;;;;;51.67;48.13;;;26.00;99.90;;;;;;5087739;28;20388;-71
2023/06/12 11:33:39;;;;;;;51.63;48.33;;;25.90;99.90;;;;;;5088790;28;20170;-72
2023/06/12 11:36:06;;;;;;;52.53;49.13;;;26.10;99.90;;;;;;5087941;28;20035;-72
2023/06/12 11:38:33;;;;;;;50.55;46.97;;;25.70;99.90;;;;;;5086853;28;20051;-72
2023/06/12 11:41:04;;;;;;;51.95;48.38;;;25.90;99.90;;;;;;5078275;28;20054;-70
2023/06/12 11:43:31;;;;;;;51.03;47.53;;;26.10;99.90;;;;;;5083496;28;20083;-70
2023/06/12 11:46:01;;;;;;;51.63;48.08;;;26.00;99.90;;;;;;5084567;28;20070;-71
2023/06/12 11:48:30;;;;;;;51.88;48.72;;;26.30;99.90;;;;;;5090183;28;20036;-72
2023/06/12 11:51:01;;;;;;;46.83;43.88;;;26.40;99.90;;;;;;5083849;28;20043;-72
2023/06/12 11:53:30;;;;;;;51.35;48.22;;;26.20;99.60;;;;;;5081610;28;20051;-71
2023/06/12 11:56:00;;;;;;;50.25;47.15;;;25.50;99.90;;;;;;5080230;28;20036;-71
2023/06/12 11:58:40;;;;;;;45.55;42.58;;;25.30;99.90;;;;;;5088164;28;20047;-72
2023/06/12 12:01:23;;;;;;;51.22;47.83;;;25.20;99.90;;;;;;5086163;28;20040;-72
2023/06/12 12:03:51;;;;;;;49.30;46.17;;;25.10;99.90;;;;;;5069413;28;20067;-72
2023/06/12 12:06:23;;;;;;;48.85;45.75;;;25.70;99.90;;;;;;5086150;28;20100;-71
2023/06/12 12:08:57;;;;;;;50.08;46.55;;;25.80;99.90;;;;;;5065960;28;20093;-72
2023/06/12 12:11:29;;;;;;;49.17;45.77;;;26.20;99.90;;;;;;5084957;28;20048;-71
2023/06/12 12:14:01;;;;;;;51.85;48.35;;;26.50;99.90;;;;;;5086696;28;20406;-72
2023/06/12 12:16:29;;;;;;;50.70;46.97;;;26.40;99.30;;;;;;5089643;28;20101;-72
2023/06/12 12:18:56;;;;;;;51.25;47.80;;;26.40;99.30;;;;;;5082637;28;20048;-72
2023/06/12 12:21:23;;;;;;;52.22;48.83;;;26.20;99.90;;;;;;5080581;28;20412;-71
2023/06/12 12:23:52;;;;;;;49.92;46.47;;;26.00;99.10;;;;;;5082583;28;20032;-70
2023/06/12 12:26:20;;;;;;;48.22;45.13;;;26.20;99.90;;;;;;5068680;28;20076;-72
2023/06/12 12:28:47;;;;;;;51.72;47.75;;;26.60;99.70;;;;;;5090139;28;20558;-71
2023/06/12 12:31:13;;;;;;;50.40;46.88;;;26.50;98.50;;;;;;5090519;28;20112;-72
2023/06/12 12:33:40;;;;;;;48.28;45.08;;;26.00;98.70;;;;;;5084776;28;20036;-71
2023/06/12 12:36:08;;;;;;;50.10;46.83;;;26.40;98.80;;;;;;5077889;28;20081;-71
2023/06/12 12:38:35;;;;;;;50.45;46.97;;;26.40;98.60;;;;;;5083288;28;20075;-71